Terminal Aerodrome Forecast
Issued by NWS Austin/San Antonio, TX

Home | Current Version | Previous Version | Text Only | Print | Product List | Glossary On
Versions: 1 2 3 4 5 6 7 8 9 10 11 12 13 14
000
FTUS44 KEWX 271100 RRA
TAFSAT
TAF
KSAT 271152Z 2712/2818 00000KT P6SM FEW250
     FM271700 06006KT P6SM FEW060 SCT250
     FM280000 10008KT P6SM SCT080 SCT250=

USA.gov is the U.S. government's official web portal to all federal, state and local government web resources and services.